Time;durP1;ratioP1;P1;durP2;ratioP2;P2;SDS_P1;SDS_P2;PMS_P1;PMS_P2;Temp;Humidity;BMP_temperature;BMP_pressure;BME280_temperature;BME280_humidity;BME280_pressure;Samples;Min_cycle;Max_cycle;Signal;HPM_P1;HPM_P2
2024/04/03 00:01:19;;;;;;;6.88;2.40;;;;;;;9.89;100.00;98265.84;5002708;28;20084;-69
2024/04/03 00:03:45;;;;;;;6.25;2.45;;;;;;;9.78;100.00;98266.88;5019348;28;20022;-69
2024/04/03 00:06:10;;;;;;;7.40;2.35;;;;;;;9.27;100.00;98266.50;5000923;28;20092;-69
2024/04/03 00:08:36;;;;;;;8.30;2.20;;;;;;;9.29;100.00;98267.19;5001388;28;20028;-68
2024/04/03 00:11:01;;;;;;;6.43;2.00;;;;;;;9.27;100.00;98263.91;5039001;28;20125;-69
2024/04/03 00:13:29;;;;;;;4.80;1.77;;;;;;;9.23;100.00;98247.81;5019258;28;20040;-69
2024/04/03 00:15:57;;;;;;;9.02;2.28;;;;;;;9.50;100.00;98264.31;5022194;28;20088;-69
2024/04/03 00:18:23;;;;;;;7.18;2.00;;;;;;;9.61;100.00;98255.50;5018803;28;20050;-69
2024/04/03 00:20:58;;;;;;;7.60;2.00;;;;;;;9.66;100.00;98257.69;5021407;28;20038;-69
2024/04/03 00:23:24;;;;;;;5.70;1.80;;;;;;;9.79;100.00;98258.13;5018521;28;20032;-69
2024/04/03 00:26:00;;;;;;;5.18;1.73;;;;;;;9.90;100.00;98257.09;5003339;28;20033;-69
2024/04/03 00:28:29;;;;;;;6.70;1.88;;;;;;;9.88;100.00;98257.22;5000942;28;20131;-69
2024/04/03 00:30:54;;;;;;;6.18;2.13;;;;;;;9.77;100.00;98257.47;5002405;28;20511;-69
2024/04/03 00:33:25;;;;;;;8.10;2.47;;;;;;;9.88;100.00;98261.63;5018135;28;20144;-69
2024/04/03 00:36:00;;;;;;;7.53;2.25;;;;;;;9.84;100.00;98262.84;5017439;28;20026;-69
2024/04/03 00:38:26;;;;;;;7.15;2.72;;;;;;;9.83;100.00;98256.84;5001449;28;20045;-69
2024/04/03 00:41:00;;;;;;;7.20;2.15;;;;;;;9.52;100.00;98243.41;5005696;28;20496;-69
2024/04/03 00:43:27;;;;;;;8.23;2.30;;;;;;;9.56;100.00;98236.97;4995471;28;20061;-68
2024/04/03 00:45:56;;;;;;;10.10;2.67;;;;;;;9.77;100.00;98260.06;4992432;28;20403;-69
2024/04/03 00:48:23;;;;;;;7.22;2.42;;;;;;;9.56;100.00;98219.59;5018494;28;20436;-69
2024/04/03 00:50:51;;;;;;;4.90;1.90;;;;;;;9.75;100.00;98262.78;5001681;28;20104;-68
2024/04/03 00:53:18;;;;;;;6.03;1.95;;;;;;;9.68;100.00;98255.75;4984849;28;20056;-69
2024/04/03 00:55:44;;;;;;;5.55;1.85;;;;;;;9.55;100.00;98220.59;5016994;28;20049;-69
2024/04/03 00:58:09;;;;;;;6.60;2.10;;;;;;;9.77;100.00;98260.88;5000109;28;20136;-68
2024/04/03 01:00:35;;;;;;;8.60;2.10;;;;;;;9.81;100.00;98263.97;4988492;28;20203;-69
2024/04/03 01:03:05;;;;;;;7.68;2.33;;;;;;;9.74;100.00;98257.75;4999917;28;20499;-69
2024/04/03 01:05:30;;;;;;;9.02;2.40;;;;;;;9.76;100.00;98267.00;5013840;28;20044;-68
2024/04/03 01:08:01;;;;;;;5.05;2.10;;;;;;;9.48;100.00;98219.53;5015282;28;20034;-69
2024/04/03 01:10:27;;;;;;;7.18;1.90;;;;;;;9.76;100.00;98261.81;5015570;28;20065;-69
2024/04/03 01:12:54;;;;;;;6.85;2.90;;;;;;;9.76;100.00;98276.59;5014252;28;20041;-69
2024/04/03 01:15:21;;;;;;;6.95;2.33;;;;;;;9.56;100.00;98262.91;5015921;28;20072;-69
2024/04/03 01:17:49;;;;;;;7.80;2.22;;;;;;;9.26;100.00;98219.97;5007025;28;20109;-69
2024/04/03 01:20:17;;;;;;;7.28;2.42;;;;;;;9.38;100.00;98265.47;5028779;28;20033;-69
2024/04/03 01:22:43;;;;;;;6.50;2.40;;;;;;;9.18;100.00;98263.00;4984660;28;20034;-68
2024/04/03 01:25:14;;;;;;;4.93;2.05;;;;;;;9.17;100.00;98247.59;5015683;28;20030;-68
2024/04/03 01:27:39;;;;;;;8.18;2.30;;;;;;;9.38;100.00;98265.47;4983913;28;20084;-68
2024/04/03 01:30:05;;;;;;;6.57;2.30;;;;;;;9.46;100.00;98272.56;5002210;28;20065;-69
2024/04/03 01:32:32;;;;;;;7.07;2.20;;;;;;;8.99;100.00;98222.41;5000670;28;20034;-68
2024/04/03 01:34:57;;;;;;;6.22;2.20;;;;;;;9.40;99.17;98272.19;4995916;28;20041;-69
2024/04/03 01:37:27;;;;;;;6.47;2.08;;;;;;;9.45;100.00;98274.31;5000857;28;20034;-69
2024/04/03 01:39:53;;;;;;;7.43;2.15;;;;;;;9.48;100.00;98273.22;4999256;28;20076;-69
2024/04/03 01:42:20;;;;;;;7.57;2.33;;;;;;;9.51;99.21;98255.59;5009955;28;20030;-69
2024/04/03 01:44:45;;;;;;;6.60;2.00;;;;;;;9.53;99.93;98258.03;5002617;28;20043;-68
2024/04/03 01:47:11;;;;;;;5.20;1.85;;;;;;;9.47;100.00;98267.19;4997314;28;20738;-69
2024/04/03 01:49:41;;;;;;;7.68;2.13;;;;;;;9.40;100.00;98256.59;4999157;28;20389;-68
2024/04/03 01:52:09;;;;;;;6.78;2.10;;;;;;;9.33;100.00;98252.16;5031530;28;20052;-68
2024/04/03 01:54:39;;;;;;;8.27;2.05;;;;;;;9.35;100.00;98258.81;4997009;28;20097;-69
2024/04/03 01:57:07;;;;;;;6.50;2.20;;;;;;;9.23;100.00;98249.59;5013701;28;20156;-69
2024/04/03 01:59:32;;;;;;;6.88;2.00;;;;;;;9.37;100.00;98259.47;5011738;28;20033;-68
2024/04/03 02:01:58;;;;;;;7.70;3.00;;;;;;;9.26;100.00;98249.31;4993795;28;20045;-69
2024/04/03 02:04:25;;;;;;;5.95;2.13;;;;;;;9.32;100.00;98247.91;4999128;28;20501;-69
2024/04/03 02:06:50;;;;;;;6.28;1.80;;;;;;;9.07;100.00;98192.34;4999161;28;20052;-68
2024/04/03 02:09:16;;;;;;;6.20;2.00;;;;;;;9.42;100.00;98235.72;5001818;28;20473;-69
2024/04/03 02:11:41;;;;;;;6.07;1.98;;;;;;;9.56;100.00;98240.38;5002526;28;20033;-68
2024/04/03 02:14:11;;;;;;;5.65;2.00;;;;;;;9.52;100.00;98239.03;4999514;28;20123;-67
2024/04/03 02:16:37;;;;;;;5.13;1.88;;;;;;;9.48;100.00;98244.69;4998405;28;20030;-68
2024/04/03 02:19:05;;;;;;;7.22;1.80;;;;;;;9.53;100.00;98238.09;4980046;28;20049;-69
2024/04/03 02:21:32;;;;;;;6.63;2.30;;;;;;;9.62;100.00;98236.41;5019856;28;20037;-68
2024/04/03 02:24:00;;;;;;;5.53;2.17;;;;;;;9.70;100.00;98241.66;5018104;28;20041;-69
2024/04/03 02:26:25;;;;;;;5.30;1.83;;;;;;;9.68;100.00;98229.78;5017109;28;20248;-68
2024/04/03 02:28:51;;;;;;;5.97;2.00;;;;;;;9.70;100.00;98230.47;4997829;28;20474;-69
2024/04/03 02:31:16;;;;;;;5.60;1.90;;;;;;;9.75;100.00;98234.22;5012743;28;20022;-68
2024/04/03 02:33:46;;;;;;;7.80;2.03;;;;;;;9.66;100.00;98224.75;5003414;28;20397;-68
2024/04/03 02:36:14;;;;;;;5.00;1.95;;;;;;;9.69;100.00;98227.06;5002446;28;20891;-68
2024/04/03 02:38:40;;;;;;;7.05;2.13;;;;;;;9.75;100.00;98228.25;5015832;28;20121;-68
2024/04/03 02:41:05;;;;;;;8.77;2.17;;;;;;;9.72;100.00;98224.13;4981518;28;20198;-69
2024/04/03 02:43:31;;;;;;;6.80;2.30;;;;;;;9.59;100.00;98223.69;5015167;28;20084;-67
2024/04/03 02:45:57;;;;;;;5.63;1.90;;;;;;;9.62;100.00;98226.81;5012077;28;20091;-69
2024/04/03 02:48:30;;;;;;;9.30;1.98;;;;;;;9.67;100.00;98215.97;4998621;28;20022;-70
2024/04/03 02:51:05;;;;;;;5.05;1.60;;;;;;;9.74;100.00;98230.00;4979871;28;20029;-69
2024/04/03 02:53:34;;;;;;;5.50;2.30;;;;;;;9.77;100.00;98223.72;4987477;28;20812;-69
2024/04/03 02:56:00;;;;;;;6.95;2.05;;;;;;;9.76;100.00;98219.47;4995827;28;20096;-68
2024/04/03 02:58:26;;;;;;;5.78;2.22;;;;;;;9.81;100.00;98220.66;4983915;28;20048;-69
2024/04/03 03:01:06;;;;;;;6.10;2.22;;;;;;;9.90;100.00;98231.13;5014124;28;20029;-69
2024/04/03 03:03:31;;;;;;;;;;;;;;;9.81;100.00;98227.63;4995479;28;20113;-68
2024/04/03 03:06:02;;;;;;;6.78;1.95;;;;;;;9.53;100.00;98230.31;5011996;28;20751;-68
2024/04/03 03:08:29;;;;;;;6.68;2.03;;;;;;;9.06;100.00;98194.13;4979102;28;20045;-69
2024/04/03 03:10:55;;;;;;;4.93;1.55;;;;;;;9.29;100.00;98225.69;4998824;28;20030;-68
2024/04/03 03:13:26;;;;;;;7.18;2.40;;;;;;;9.49;100.00;98231.56;4996668;28;20034;-69
2024/04/03 03:15:51;;;;;;;5.72;1.85;;;;;;;9.36;100.00;98234.53;5002119;28;20033;-68
2024/04/03 03:18:20;;;;;;;6.82;1.70;;;;;;;9.32;100.00;98233.16;4996506;28;20477;-68
2024/04/03 03:20:47;;;;;;;7.25;1.50;;;;;;;9.20;100.00;98203.22;4995067;28;20014;-69
2024/04/03 03:23:12;;;;;;;5.53;1.60;;;;;;;9.58;100.00;98240.22;4981794;28;20034;-69
2024/04/03 03:25:38;;;;;;;6.93;1.63;;;;;;;9.56;100.00;98240.38;5010349;28;20548;-69
2024/04/03 03:28:03;;;;;;;6.82;1.63;;;;;;;9.72;100.00;98244.09;4990175;28;20039;-68
2024/04/03 03:30:29;;;;;;;5.95;1.90;;;;;;;9.49;100.00;98203.03;5029660;28;20054;-69
2024/04/03 03:32:57;;;;;;;6.00;1.50;;;;;;;9.77;100.00;98234.91;5039671;28;20134;-69
2024/04/03 03:35:22;;;;;;;5.13;1.40;;;;;;;9.85;100.00;98236.75;5002128;28;20747;-68
2024/04/03 03:37:48;;;;;;;4.78;1.50;;;;;;;9.86;100.00;98243.59;4977707;28;20026;-68
2024/04/03 03:40:13;;;;;;;6.70;1.58;;;;;;;9.77;100.00;98244.47;4997405;28;20044;-68
2024/04/03 03:42:38;;;;;;;6.60;1.70;;;;;;;9.77;100.00;98231.50;5006074;28;20129;-69
2024/04/03 03:45:04;;;;;;;5.88;1.67;;;;;;;9.90;100.00;98237.13;4995961;28;20823;-68
2024/04/03 03:47:32;;;;;;;5.72;1.58;;;;;;;9.76;100.00;98240.25;5013969;28;20121;-69
2024/04/03 03:52:42;;;;;;;5.63;1.60;;;;;;;9.71;100.00;98243.28;5030160;28;20117;-69
2024/04/03 03:55:08;;;;;;;4.85;1.63;;;;;;;9.65;100.00;98212.72;4997860;28;20040;-69
2024/04/03 03:57:33;;;;;;;5.40;1.60;;;;;;;9.38;100.00;98206.63;5006599;28;20026;-68
2024/04/03 03:59:59;;;;;;;6.65;1.70;;;;;;;9.57;100.00;98238.59;5014174;28;20056;-69
2024/04/03 04:02:25;;;;;;;5.75;1.90;;;;;;;9.76;100.00;98246.25;5013931;28;20515;-69
2024/04/03 04:04:51;;;;;;;7.03;1.85;;;;;;;9.77;100.00;98244.47;5029347;28;20137;-68
2024/04/03 04:07:20;;;;;;;7.93;2.03;;;;;;;9.77;100.00;98241.88;4995787;28;20038;-69
2024/04/03 04:09:50;;;;;;;5.72;1.80;;;;;;;9.84;100.00;98245.53;4996044;28;20141;-69
2024/04/03 04:12:20;;;;;;;8.65;1.95;;;;;;;9.82;100.00;98243.06;4995783;28;20090;-68
2024/04/03 04:14:50;;;;;;;5.47;1.55;;;;;;;9.57;100.00;98203.06;5006095;28;20392;-69
2024/04/03 04:17:16;;;;;;;6.38;1.60;;;;;;;9.87;100.00;98241.78;4985432;28;20030;-69
2024/04/03 04:19:41;;;;;;;4.28;1.38;;;;;;;9.92;100.00;98232.59;5013573;28;20030;-68
2024/04/03 04:22:07;;;;;;;5.45;1.75;;;;;;;9.88;100.00;98225.25;5021238;28;20125;-68
2024/04/03 04:24:36;;;;;;;7.50;1.70;;;;;;;9.90;100.00;98218.13;5003485;28;20038;-68
2024/04/03 04:27:07;;;;;;;4.72;1.73;;;;;;;9.75;100.00;98229.03;4991495;28;20490;-69
2024/04/03 04:29:36;;;;;;;5.07;1.60;;;;;;;9.80;100.00;98219.03;5034034;28;20034;-69
2024/04/03 04:32:08;;;;;;;7.93;1.90;;;;;;;9.88;100.00;98230.47;5021885;28;20024;-67
2024/04/03 04:34:36;;;;;;;6.10;1.50;;;;;;;9.85;100.00;98215.16;5001882;28;20536;-68
2024/04/03 04:37:02;;;;;;;7.75;2.22;;;;;;;9.82;100.00;98222.28;5016297;28;20048;-68
2024/04/03 04:39:27;;;;;;;6.38;1.80;;;;;;;9.99;100.00;98233.63;5028743;28;20465;-69
2024/04/03 04:41:53;;;;;;;5.82;2.05;;;;;;;9.77;100.00;98240.09;5005780;28;20095;-68
2024/04/03 04:44:20;;;;;;;6.60;1.92;;;;;;;9.79;100.00;98232.97;5002533;28;20061;-69
2024/04/03 04:46:54;;;;;;;6.03;1.77;;;;;;;9.63;100.00;98233.63;5011798;28;20083;-69
2024/04/03 04:49:25;;;;;;;5.10;1.65;;;;;;;9.59;100.00;98236.69;5017150;28;20467;-69
2024/04/03 04:51:53;;;;;;;5.55;1.80;;;;;;;9.64;100.00;98224.06;4999933;28;20033;-69
2024/04/03 04:54:18;;;;;;;6.78;1.95;;;;;;;9.77;100.00;98244.47;5014212;28;20060;-68
2024/04/03 04:56:45;;;;;;;7.50;2.20;;;;;;;9.79;100.00;98243.34;5002969;28;20041;-68
2024/04/03 04:59:13;;;;;;;9.05;2.30;;;;;;;9.60;100.00;98220.13;5012700;28;20030;-67
2024/04/03 05:01:40;;;;;;;4.97;2.00;;;;;;;9.82;100.00;98243.06;4985240;28;20107;-68
2024/04/03 05:04:08;;;;;;;5.45;1.95;;;;;;;9.86;100.00;98242.78;5001512;28;20051;-68
2024/04/03 05:06:34;;;;;;;6.82;2.47;;;;;;;9.90;100.00;98249.28;4996810;28;20120;-66
2024/04/03 05:08:59;;;;;;;5.40;1.92;;;;;;;9.82;100.00;98237.88;5004036;28;20120;-67
2024/04/03 05:11:25;;;;;;;7.80;2.13;;;;;;;9.78;100.00;98246.09;5014320;28;20453;-68
2024/04/03 05:13:53;;;;;;;6.40;2.58;;;;;;;9.72;100.00;98246.69;4999886;28;20033;-68
2024/04/03 05:16:21;;;;;;;6.13;2.20;;;;;;;9.81;100.00;98243.22;4997482;28;20077;-66
2024/04/03 05:18:48;;;;;;;6.25;2.05;;;;;;;9.84;100.00;98247.28;5014015;28;20045;-69
2024/04/03 05:21:17;;;;;;;7.18;2.25;;;;;;;9.73;100.00;98243.97;4996257;28;20124;-68
2024/04/03 05:23:43;;;;;;;6.38;1.75;;;;;;;9.73;100.00;98249.16;4994100;28;20029;-68
2024/04/03 05:26:11;;;;;;;5.45;1.80;;;;;;;9.77;100.00;98244.47;5016091;28;20076;-68
2024/04/03 05:28:37;;;;;;;5.40;1.92;;;;;;;9.88;100.00;98251.22;4990636;28;20037;-69
2024/04/03 05:31:10;;;;;;;5.00;2.10;;;;;;;9.86;100.00;98253.97;4996443;28;20082;-68
2024/04/03 05:33:36;;;;;;;7.72;2.58;;;;;;;9.68;100.00;98217.63;5011682;28;20336;-69
2024/04/03 05:36:04;;;;;;;9.07;4.97;;;;;;;9.87;100.00;98258.19;5010419;28;20030;-69
2024/04/03 05:38:32;;;;;;;7.53;3.80;;;;;;;9.71;100.00;98253.69;4998966;28;20029;-70
2024/04/03 05:40:58;;;;;;;11.90;4.35;;;;;;;9.82;100.00;98263.03;5013894;28;20564;-69
2024/04/03 05:43:24;;;;;;;16.52;5.68;;;;;;;9.62;100.00;98228.59;4997822;28;20022;-69
2024/04/03 05:45:59;;;;;;;12.93;5.38;;;;;;;9.91;100.00;98266.50;4994872;28;20108;-72
2024/04/03 05:48:28;;;;;;;11.38;4.57;;;;;;;9.79;100.00;98269.31;4997820;28;20056;-68
2024/04/03 05:51:06;;;;;;;8.87;4.30;;;;;;;9.70;100.00;98253.81;4992059;28;20236;-69
2024/04/03 05:53:35;;;;;;;9.48;3.38;;;;;;;9.87;100.00;98268.56;5012991;28;21021;-69
2024/04/03 05:56:04;;;;;;;6.90;2.80;;;;;;;9.56;100.00;98235.19;5004509;28;20371;-69
2024/04/03 05:58:32;;;;;;;5.05;1.95;;;;;;;9.81;100.00;98271.78;4998984;28;20068;-69
2024/04/03 06:01:01;;;;;;;5.53;2.28;;;;;;;9.54;100.00;98233.69;5004845;28;20081;-70
2024/04/03 06:03:29;;;;;;;6.60;2.70;;;;;;;9.85;100.00;98277.50;5000142;28;20041;-69
2024/04/03 06:05:59;;;;;;;8.30;3.30;;;;;;;9.76;100.00;98274.78;4997382;28;20041;-69
2024/04/03 06:08:27;;;;;;;6.57;2.60;;;;;;;9.70;100.00;98275.41;5013777;28;20840;-70
2024/04/03 06:10:52;;;;;;;5.72;2.58;;;;;;;9.62;100.00;98272.75;4999362;28;20072;-70
2024/04/03 06:13:18;;;;;;;5.68;2.38;;;;;;;9.31;100.00;98238.47;5015857;28;20045;-70
2024/04/03 06:15:46;;;;;;;6.70;2.53;;;;;;;9.30;100.00;98278.38;4998475;28;20073;-69
2024/04/03 06:18:15;;;;;;;7.03;2.42;;;;;;;9.24;100.00;98284.97;4995955;28;20042;-69
2024/04/03 06:20:43;;;;;;;5.35;2.10;;;;;;;9.17;100.00;98271.75;4998997;28;20127;-69
2024/04/03 06:23:11;;;;;;;6.13;2.20;;;;;;;9.11;100.00;98274.91;5013354;28;20033;-70
2024/04/03 06:25:37;;;;;;;8.27;2.08;;;;;;;9.11;100.00;98287.06;4997471;28;20033;-74
2024/04/03 06:28:04;;;;;;;6.07;1.75;;;;;;;8.88;100.00;98248.53;5012993;28;20026;-71
2024/04/03 06:30:29;;;;;;;6.47;1.90;;;;;;;9.04;100.00;98269.47;5012837;28;20037;-69
2024/04/03 06:32:54;;;;;;;5.50;2.20;;;;;;;9.06;100.00;98282.31;5031210;28;20041;-69
2024/04/03 06:35:20;;;;;;;4.97;1.55;;;;;;;8.96;100.00;98277.16;4997655;28;21062;-69
2024/04/03 06:37:46;;;;;;;6.15;1.80;;;;;;;8.85;100.00;98275.56;4984826;28;20025;-72
2024/04/03 06:40:16;;;;;;;6.38;1.92;;;;;;;8.89;100.00;98272.66;4995105;28;20037;-71
2024/04/03 06:42:41;;;;;;;5.68;1.80;;;;;;;9.04;100.00;98279.03;5011619;28;20037;-71
2024/04/03 06:45:09;;;;;;;8.55;1.70;;;;;;;8.98;100.00;98283.03;4979296;28;20030;-72
2024/04/03 06:47:37;;;;;;;6.55;1.80;;;;;;;8.85;100.00;98275.56;4994505;28;20108;-72
2024/04/03 06:50:06;;;;;;;5.10;1.55;;;;;;;8.83;100.00;98284.44;5013497;28;20460;-70
2024/04/03 06:52:32;;;;;;;6.32;1.85;;;;;;;8.89;100.00;98291.66;4992999;28;20037;-71
2024/04/03 06:54:59;;;;;;;4.28;1.40;;;;;;;8.70;100.00;98283.94;5013567;28;20029;-71
2024/04/03 06:57:25;;;;;;;7.10;1.70;;;;;;;8.47;100.00;98242.81;5028393;28;20556;-68
2024/04/03 06:59:53;;;;;;;5.55;1.70;;;;;;;8.77;100.00;98285.00;4979757;28;20026;-70
2024/04/03 07:02:21;;;;;;;6.40;1.58;;;;;;;8.78;100.00;98295.25;4993265;28;20473;-70
2024/04/03 07:04:46;;;;;;;5.35;1.75;;;;;;;8.71;100.00;98294.16;4982088;28;20034;-69
2024/04/03 07:07:17;;;;;;;6.80;1.90;;;;;;;8.77;100.00;98288.41;5027307;28;20482;-69
2024/04/03 07:09:45;;;;;;;5.28;1.80;;;;;;;8.78;100.00;98284.03;4992658;28;20531;-69
2024/04/03 07:12:10;;;;;;;9.00;2.22;;;;;;;8.94;100.00;98288.63;4983474;28;20040;-70
2024/04/03 07:14:38;;;;;;;6.22;2.10;;;;;;;8.87;100.00;98283.22;5008802;28;20921;-72
2024/04/03 07:17:04;;;;;;;6.93;2.50;;;;;;;8.54;100.00;98256.00;5014136;28;20052;-69
2024/04/03 07:19:29;;;;;;;6.40;2.10;;;;;;;8.80;100.00;98282.16;4997367;28;20037;-72
2024/04/03 07:21:55;;;;;;;7.60;2.47;;;;;;;8.90;100.00;98300.25;5002194;28;20018;-69
2024/04/03 07:24:22;;;;;;;6.40;2.17;;;;;;;8.90;100.00;98306.25;4979072;28;20085;-70
2024/04/03 07:26:48;;;;;;;5.75;1.77;;;;;;;8.92;100.00;98306.09;5009988;28;20029;-71
2024/04/03 07:29:19;;;;;;;6.35;2.10;;;;;;;8.91;100.00;98302.69;4991473;28;20963;-68
2024/04/03 07:31:45;;;;;;;6.95;1.70;;;;;;;8.87;100.00;98309.13;4989711;28;20052;-69
2024/04/03 07:34:11;;;;;;;6.47;1.98;;;;;;;8.87;100.00;98309.13;4980341;28;20850;-69
2024/04/03 07:36:38;;;;;;;5.15;1.80;;;;;;;8.90;100.00;98318.41;4999674;28;20113;-70
2024/04/03 07:39:05;;;;;;;5.95;1.60;;;;;;;8.85;100.00;98314.47;4998123;28;20451;-70
2024/04/03 07:41:35;;;;;;;5.60;1.50;;;;;;;8.89;100.00;98311.56;5013116;28;20026;-71
2024/04/03 07:44:00;;;;;;;5.32;1.90;;;;;;;8.73;100.00;98286.25;4981368;28;20104;-71
2024/04/03 07:46:29;;;;;;;7.25;1.90;;;;;;;8.84;100.00;98292.06;4998269;28;20060;-68
2024/04/03 07:48:57;;;;;;;6.90;2.13;;;;;;;8.95;100.00;98317.00;5000440;28;20975;-69
2024/04/03 07:51:25;;;;;;;6.53;1.90;;;;;;;8.91;100.00;98320.84;5035034;28;20038;-70
2024/04/03 07:53:51;;;;;;;5.38;1.75;;;;;;;8.90;100.00;98324.41;4983793;28;20026;-70
2024/04/03 07:56:19;;;;;;;7.30;1.90;;;;;;;8.84;100.00;98330.97;5006280;28;20409;-69
2024/04/03 07:58:44;;;;;;;7.50;2.47;;;;;;;8.74;100.00;98318.97;5001713;28;20125;-70
2024/04/03 08:01:10;;;;;;;6.40;2.22;;;;;;;8.75;100.00;98324.03;5005890;28;20033;-69
2024/04/03 08:03:37;;;;;;;6.60;1.92;;;;;;;8.87;100.00;98326.44;4998225;28;20033;-69
2024/04/03 08:06:04;;;;;;;6.18;2.17;;;;;;;8.88;100.00;98339.28;5003974;28;20025;-71
2024/04/03 08:08:32;;;;;;;4.30;1.60;;;;;;;8.76;100.00;98336.03;5015325;28;20030;-70
2024/04/03 08:11:04;;;;;;;6.53;1.95;;;;;;;8.88;100.00;98341.06;5001724;28;20120;-70
2024/04/03 08:13:33;;;;;;;6.88;1.75;;;;;;;8.69;100.00;98314.22;5004598;28;20093;-69
2024/04/03 08:16:06;;;;;;;9.43;1.70;;;;;;;8.66;100.00;98330.84;5004016;28;20499;-69
2024/04/03 08:18:35;;;;;;;8.23;3.17;;;;;;;8.59;100.00;98324.59;5017414;28;20113;-70
2024/04/03 08:21:03;;;;;;;12.63;4.53;;;;;;;8.89;100.00;98369.44;5022547;28;20029;-70
2024/04/03 08:23:29;;;;;;;11.30;4.28;;;;;;;8.65;100.00;98333.59;4999332;28;20034;-69
2024/04/03 08:25:54;;;;;;;10.65;3.85;;;;;;;8.92;100.00;98373.53;5001845;28;20057;-70
2024/04/03 08:28:22;;;;;;;14.10;5.63;;;;;;;8.77;100.00;98357.59;5000008;28;20049;-68
2024/04/03 08:30:48;;;;;;;8.88;2.80;;;;;;;8.89;100.00;98374.63;5006377;28;20060;-67
2024/04/03 08:33:13;;;;;;;13.98;4.15;;;;;;;8.91;100.00;98361.50;4981157;28;20765;-68
2024/04/03 08:35:39;;;;;;;36.63;14.52;;;;;;;8.98;100.00;98365.19;5000773;28;20026;-70
2024/04/03 08:38:06;;;;;;;15.43;5.95;;;;;;;9.00;100.00;98366.69;5005022;28;20045;-70
2024/04/03 08:40:34;;;;;;;8.27;2.78;;;;;;;9.10;100.00;98352.88;4984121;28;20060;-69
2024/04/03 08:43:02;;;;;;;8.98;2.95;;;;;;;9.09;100.00;98365.03;5000292;28;20677;-71
2024/04/03 08:45:33;;;;;;;10.85;4.00;;;;;;;9.10;100.00;98360.66;4999762;28;20489;-71
2024/04/03 08:48:00;;;;;;;7.65;2.13;;;;;;;9.01;100.00;98370.91;5016175;28;20100;-71
2024/04/03 08:50:26;;;;;;;8.38;1.55;;;;;;;8.89;100.00;98372.03;4987820;28;20120;-70
2024/04/03 08:52:52;;;;;;;13.18;4.40;;;;;;;8.73;100.00;98374.38;4990591;28;20044;-74
2024/04/03 08:55:17;;;;;;;14.45;5.88;;;;;;;8.80;100.00;98376.28;4998918;28;20014;-72
2024/04/03 08:57:48;;;;;;;16.63;7.47;;;;;;;8.73;100.00;98366.63;4999957;28;20056;-69
2024/04/03 09:00:14;;;;;;;8.20;3.40;;;;;;;8.75;100.00;98369.88;5003130;28;20145;-73
2024/04/03 09:02:39;;;;;;;6.13;2.30;;;;;;;8.78;100.00;98382.53;4999111;28;20755;-72
2024/04/03 09:05:06;;;;;;;6.13;1.85;;;;;;;8.87;100.00;98375.72;5002524;28;20103;-68
2024/04/03 09:07:31;;;;;;;5.85;1.92;;;;;;;8.96;100.00;98373.13;5008064;28;20040;-71
2024/04/03 09:09:59;;;;;;;6.10;2.00;;;;;;;9.03;100.00;98383.72;5018169;28;20021;-71
2024/04/03 09:12:25;;;;;;;8.02;1.67;;;;;;;9.09;100.00;98379.75;5016249;28;20039;-69
2024/04/03 09:14:50;;;;;;;5.05;1.77;;;;;;;9.08;100.00;98370.34;5012675;28;20026;-68
2024/04/03 09:17:18;;;;;;;5.72;2.20;;;;;;;8.91;100.00;98341.59;5000749;28;20145;-71
2024/04/03 09:19:50;;;;;;;10.70;5.00;;;;;;;9.01;100.00;98372.69;5019811;28;20030;-71
2024/04/03 09:22:19;;;;;;;9.20;4.22;;;;;;;8.81;100.00;98339.00;5003406;28;20084;-72
2024/04/03 09:24:44;;;;;;;14.02;6.47;;;;;;;8.97;100.00;98381.72;5001987;28;20189;-73
2024/04/03 09:27:13;;;;;;;20.63;10.10;;;;;;;8.95;100.00;98373.25;4995750;28;20676;-73
2024/04/03 09:29:49;;;;;;;24.38;11.35;;;;;;;8.88;100.00;98367.00;4999200;28;20526;-70
2024/04/03 09:32:15;;;;;;;9.60;3.53;;;;;;;9.03;100.00;98378.53;4995312;28;20128;-71
2024/04/03 09:34:46;;;;;;;9.25;3.53;;;;;;;8.85;100.00;98366.31;4996605;28;20549;-69
2024/04/03 09:37:14;;;;;;;9.52;3.85;;;;;;;8.89;100.00;98366.00;5004554;28;20105;-69
2024/04/03 09:39:40;;;;;;;8.85;3.00;;;;;;;8.90;100.00;98371.06;5002751;28;20159;-70
2024/04/03 09:42:07;;;;;;;6.85;2.17;;;;;;;8.78;100.00;98377.34;5000028;28;20081;-69
2024/04/03 09:44:37;;;;;;;6.45;2.40;;;;;;;8.78;100.00;98369.59;5032985;28;20046;-70
2024/04/03 09:47:11;;;;;;;8.57;3.03;;;;;;;8.76;100.00;98371.50;5019143;28;20108;-68
2024/04/03 09:49:49;;;;;;;8.18;3.65;;;;;;;8.74;100.00;98369.03;5008854;28;20037;-73
2024/04/03 09:52:17;;;;;;;10.20;4.35;;;;;;;8.72;100.00;98364.97;5011537;28;20875;-68
2024/04/03 09:54:44;;;;;;;6.75;3.22;;;;;;;8.62;100.00;98358.03;5000641;28;20030;-69
2024/04/03 09:57:10;;;;;;;9.43;3.25;;;;;;;8.66;100.00;98356.78;5023504;28;20045;-71
2024/04/03 09:59:38;;;;;;;6.57;2.50;;;;;;;8.64;100.00;98363.88;4999663;28;20616;-69
2024/04/03 10:02:04;;;;;;;8.60;3.30;;;;;;;8.68;100.00;98350.66;4995768;28;20058;-70
2024/04/03 10:04:38;;;;;;;7.63;2.42;;;;;;;8.71;100.00;98358.16;4979889;28;20045;-69
2024/04/03 10:07:14;;;;;;;6.80;2.30;;;;;;;8.78;100.00;98354.03;4980722;28;20069;-69
2024/04/03 10:09:42;;;;;;;8.63;2.40;;;;;;;8.90;100.00;98354.69;5013013;28;20032;-70
2024/04/03 10:12:19;;;;;;;5.03;1.70;;;;;;;8.77;100.00;98361.00;4998243;28;20109;-71
2024/04/03 10:14:45;;;;;;;8.02;3.30;;;;;;;8.74;100.00;98358.66;5029634;28;20522;-66
2024/04/03 10:17:15;;;;;;;6.72;2.80;;;;;;;8.71;100.00;98358.97;5003085;28;20021;-70
2024/04/03 10:19:45;;;;;;;5.88;2.65;;;;;;;8.83;100.00;98359.63;4980478;28;20034;-69
2024/04/03 10:22:14;;;;;;;8.68;2.67;;;;;;;8.51;100.00;98318.50;5002100;28;20065;-68
2024/04/03 10:24:43;;;;;;;7.85;2.78;;;;;;;8.70;100.00;98325.41;4998139;28;20030;-71
2024/04/03 10:27:09;;;;;;;5.55;1.92;;;;;;;8.84;100.00;98372.44;5030965;28;20036;-68
2024/04/03 10:29:36;;;;;;;5.70;2.20;;;;;;;8.81;100.00;98370.13;5007303;28;20034;-72
2024/04/03 10:32:02;;;;;;;5.05;1.67;;;;;;;8.73;100.00;98372.59;4991182;28;20715;-72
2024/04/03 10:34:27;;;;;;;5.05;2.08;;;;;;;8.78;100.00;98375.59;5013640;28;20046;-71
2024/04/03 10:36:53;;;;;;;8.20;1.80;;;;;;;8.72;100.00;98362.38;5011212;28;20452;-71
2024/04/03 10:39:19;;;;;;;5.68;1.70;;;;;;;8.88;100.00;98370.38;4980682;28;20497;-69
2024/04/03 10:41:44;;;;;;;4.93;1.70;;;;;;;8.82;100.00;98374.38;4996396;28;20072;-71
2024/04/03 10:44:11;;;;;;;5.63;1.63;;;;;;;8.69;100.00;98357.44;5003372;28;20052;-68
2024/04/03 10:46:39;;;;;;;6.18;1.20;;;;;;;8.78;100.00;98365.22;4996146;28;20034;-72
2024/04/03 10:49:04;;;;;;;4.65;1.70;;;;;;;8.49;100.00;98339.34;4994050;28;20504;-71
2024/04/03 10:51:35;;;;;;;4.20;1.50;;;;;;;8.77;100.00;98361.00;4998906;28;20022;-72
2024/04/03 10:54:03;;;;;;;4.15;1.70;;;;;;;8.79;100.00;98376.41;4994927;28;20029;-71
2024/04/03 10:56:31;;;;;;;5.00;1.30;;;;;;;8.78;100.00;98372.16;4995897;28;20092;-70
2024/04/03 10:58:57;;;;;;;3.97;1.38;;;;;;;8.80;100.00;98378.88;4997861;28;20822;-73
2024/04/03 11:01:23;;;;;;;3.97;1.38;;;;;;;8.82;100.00;98376.16;4997932;28;20052;-70
2024/04/03 11:03:52;;;;;;;4.68;1.60;;;;;;;8.85;100.00;98387.06;4997463;28;20421;-72
2024/04/03 11:06:23;;;;;;;7.07;1.50;;;;;;;8.45;100.00;98336.22;5009015;28;20504;-70
2024/04/03 11:08:50;;;;;;;5.13;1.45;;;;;;;8.74;100.00;98386.38;5010526;28;20049;-71
2024/04/03 11:11:18;;;;;;;3.47;1.20;;;;;;;8.67;100.00;98380.94;5017573;28;20036;-72
2024/04/03 11:13:47;;;;;;;4.97;1.40;;;;;;;8.72;100.00;98375.34;5009633;28;20126;-71
2024/04/03 11:16:13;;;;;;;4.68;0.93;;;;;;;8.51;100.00;98347.81;5002701;28;20455;-71
2024/04/03 11:18:38;;;;;;;3.15;1.15;;;;;;;8.74;100.00;98374.22;4995988;28;20026;-71
2024/04/03 11:21:06;;;;;;;4.00;1.40;;;;;;;8.78;100.00;98382.53;5016180;28;20610;-70
2024/04/03 11:23:32;;;;;;;4.15;1.10;;;;;;;8.82;100.00;98360.59;5014461;28;20029;-70
2024/04/03 11:25:57;;;;;;;3.38;1.20;;;;;;;8.88;100.00;98354.84;4984826;28;20029;-71
2024/04/03 11:28:25;;;;;;;4.03;1.10;;;;;;;8.97;100.00;98342.81;5000630;28;20041;-72
2024/04/03 11:30:53;;;;;;;3.40;1.17;;;;;;;9.00;100.00;98348.53;4997895;28;20036;-72
2024/04/03 11:33:18;;;;;;;4.55;1.35;;;;;;;9.12;100.00;98353.53;5000925;28;20036;-72
2024/04/03 11:35:43;;;;;;;8.38;5.45;;;;;;;9.10;100.00;98348.50;5003005;28;20397;-72
2024/04/03 11:38:09;;;;;;;5.30;1.77;;;;;;;8.79;100.00;98296.84;5000891;28;20438;-71